Terminal Aerodrome Forecast
Issued by NWS

Home | Current Version | Previous Version | Text Only | Print | Product List | Glossary On
Versions: 1 2 3 4 5 6 7 8 9 10 11 12 13
000
FTUS45 KABQ 202300
TAFGUP
TAF
KGUP 202336Z 2100/2124 05006KT P6SM VCSH SCT060 BKN090
     FM210300 VRB06KT P6SM SCT050 BKN090
     FM211100 VRB06KT P6SM SCT040 SCT100
     FM211900 21010KT P6SM VCTS SCT050CB BKN120=

USA.gov is the U.S. government's official web portal to all federal, state and local government web resources and services.